Time;durP1;ratioP1;P1;durP2;ratioP2;P2;SDS_P1;SDS_P2;PMS_P1;PMS_P2;Temp;Humidity;BMP_temperature;BMP_pressure;BME280_temperature;BME280_humidity;BME280_pressure;Samples;Min_cycle;Max_cycle;Signal;HPM_P1;HPM_P2
2022/06/16 00:00:38;;;;;;;0.90;0.50;;;;;;;13.17;100.00;100340.19;7394449;19;20025;-84
2022/06/16 00:03:07;;;;;;;1.35;0.47;;;;;;;13.12;100.00;100341.66;7398464;19;20019;-84
2022/06/16 00:05:36;;;;;;;5.68;1.02;;;;;;;13.15;100.00;100349.06;7393248;19;20037;-83
2022/06/16 00:08:04;;;;;;;0.20;0.20;;;;;;;13.13;100.00;100343.19;7396543;19;20013;-83
2022/06/16 00:10:30;;;;;;;0.95;0.73;;;;;;;13.03;100.00;100341.72;7396845;19;20090;-84
2022/06/16 00:12:56;;;;;;;0.68;0.50;;;;;;;12.97;100.00;100342.84;7395693;19;20034;-84
2022/06/16 00:15:27;;;;;;;0.68;0.68;;;;;;;13.01;100.00;100338.63;7392759;19;20018;-84
2022/06/16 00:17:54;;;;;;;;;;;;;;;12.93;100.00;100343.03;7395403;19;20014;-83
2022/06/16 00:20:20;;;;;;;2.78;0.88;;;;;;;12.85;100.00;100347.44;7391991;19;19915;-83
2022/06/16 00:22:47;;;;;;;3.47;0.75;;;;;;;12.80;100.00;100348.09;7394764;19;20017;-84
2022/06/16 00:25:14;;;;;;;3.70;0.73;;;;;;;12.76;100.00;100344.72;7394538;19;20025;-83
2022/06/16 00:27:41;;;;;;;2.05;0.50;;;;;;;12.73;100.00;100334.53;7395938;19;20031;-84
2022/06/16 00:30:10;;;;;;;0.80;0.40;;;;;;;12.70;100.00;100349.44;7395169;19;20010;-83
2022/06/16 00:32:41;;;;;;;0.70;0.70;;;;;;;12.69;100.00;100345.13;7395253;19;20025;-84
2022/06/16 00:35:08;;;;;;;1.55;0.60;;;;;;;12.66;100.00;100332.88;7393462;19;20070;-83
2022/06/16 00:37:35;;;;;;;1.55;1.30;;;;;;;12.61;100.00;100343.91;7395935;19;20023;-83
2022/06/16 00:40:01;;;;;;;1.92;0.73;;;;;;;12.56;100.00;100339.75;7392352;19;20018;-84
2022/06/16 00:42:28;;;;;;;0.50;0.25;;;;;;;12.47;100.00;100344.66;7394079;19;20011;-84
2022/06/16 00:44:57;;;;;;;1.88;1.05;;;;;;;12.43;100.00;100346.88;7392986;19;20026;-84
2022/06/16 00:47:27;;;;;;;0.47;0.35;;;;;;;12.44;100.00;100342.81;7396097;19;20017;-84
2022/06/16 00:49:57;;;;;;;0.95;0.45;;;;;;;12.56;100.00;100344.59;7394496;19;20038;-84
2022/06/16 00:52:27;;;;;;;3.05;0.57;;;;;;;12.58;100.00;100342.09;7395719;19;20496;-84
2022/06/16 00:55:14;;;;;;;1.45;0.80;;;;;;;12.54;100.00;100341.50;7393836;19;20018;-84
2022/06/16 00:57:46;;;;;;;1.30;0.85;;;;;;;12.53;100.00;100337.16;7394676;19;20014;-84
2022/06/16 01:00:20;;;;;;;1.13;0.60;;;;;;;12.53;100.00;100342.75;7392591;19;20027;-83
2022/06/16 01:02:46;;;;;;;0.75;0.75;;;;;;;12.48;100.00;100335.00;7396754;19;20010;-84
2022/06/16 01:05:12;;;;;;;1.80;0.82;;;;;;;12.45;100.00;100338.78;7393473;19;20029;-84
2022/06/16 01:07:41;;;;;;;1.48;0.82;;;;;;;12.55;100.00;100345.84;7396690;19;20010;-84
2022/06/16 01:10:09;;;;;;;0.30;0.30;;;;;;;12.54;100.00;100349.91;7394686;19;20030;-84
2022/06/16 01:16:03;;;;;;;0.52;0.50;;;;;;;12.41;100.00;100357.75;7391147;19;20022;-83
2022/06/16 01:18:55;;;;;;;0.77;0.77;;;;;;;12.34;100.00;100363.69;7396786;19;20018;-84
2022/06/16 01:21:42;;;;;;;1.33;0.80;;;;;;;12.25;100.00;100358.16;7391229;19;20022;-84
2022/06/16 01:24:50;;;;;;;2.13;1.05;;;;;;;12.13;100.00;100360.69;7391823;19;20014;-84
2022/06/16 01:27:47;;;;;;;0.32;0.30;;;;;;;12.09;100.00;100360.09;7394957;19;20018;-84
2022/06/16 01:30:24;;;;;;;0.40;0.40;;;;;;;12.06;100.00;100361.03;7393228;19;20018;-84
2022/06/16 01:33:06;;;;;;;0.68;0.55;;;;;;;12.06;100.00;100368.66;7392734;19;20010;-84
2022/06/16 01:35:44;;;;;;;1.13;0.82;;;;;;;12.09;100.00;100367.69;7391159;19;20472;-84
2022/06/16 01:38:23;;;;;;;2.00;0.68;;;;;;;12.12;100.00;100373.13;7393921;19;20014;-84
2022/06/16 01:41:00;;;;;;;2.15;1.05;;;;;;;12.12;100.00;100381.50;7391095;19;20006;-83
2022/06/16 01:43:50;;;;;;;12.27;1.08;;;;;;;12.14;100.00;100373.41;7391204;19;20377;-84
2022/06/16 01:46:26;;;;;;;1.20;0.43;;;;;;;12.10;100.00;100364.44;7388911;19;20015;-84
2022/06/16 01:49:12;;;;;;;0.88;0.57;;;;;;;12.09;100.00;100357.31;7390920;19;20007;-84
2022/06/16 01:51:45;;;;;;;0.93;0.75;;;;;;;12.06;100.00;100366.63;7391161;19;20014;-84
2022/06/16 01:54:25;;;;;;;6.82;0.65;;;;;;;12.05;100.00;100358.72;7390911;19;20042;-84
2022/06/16 01:57:30;;;;;;;0.40;0.40;;;;;;;12.04;100.00;100357.19;7392394;19;20070;-83
2022/06/16 02:00:05;;;;;;;1.38;0.75;;;;;;;12.05;100.00;100347.56;7393905;19;20275;-84
2022/06/16 02:02:37;;;;;;;1.70;0.70;;;;;;;12.05;100.00;100348.34;7392012;19;20010;-84
2022/06/16 02:05:17;;;;;;;0.63;0.52;;;;;;;11.97;100.00;100341.56;7392254;19;20090;-84
2022/06/16 02:07:51;;;;;;;0.67;0.60;;;;;;;11.91;100.00;100337.84;7393784;19;20019;-84
2022/06/16 02:10:23;;;;;;;0.73;0.30;;;;;;;11.86;100.00;100341.31;7394103;19;20284;-83
2022/06/16 02:12:57;;;;;;;1.38;0.80;;;;;;;11.88;100.00;100338.81;7391667;19;20018;-84
2022/06/16 02:15:52;;;;;;;2.75;0.98;;;;;;;11.85;100.00;100347.34;7390104;19;20006;-84
2022/06/16 02:18:23;;;;;;;1.60;1.08;;;;;;;11.85;100.00;100344.56;7389443;19;20457;-83
2022/06/16 02:20:49;;;;;;;1.50;0.80;;;;;;;11.73;100.00;100349.13;7393112;19;20022;-83
2022/06/16 02:23:15;;;;;;;0.95;0.47;;;;;;;11.72;100.00;100347.56;7389914;19;20038;-83
2022/06/16 02:25:44;;;;;;;1.45;0.95;;;;;;;11.71;100.00;100367.56;7389592;19;20460;-83
2022/06/16 02:28:12;;;;;;;4.35;0.80;;;;;;;11.69;100.00;100359.69;7391716;19;20011;-83
2022/06/16 02:30:48;;;;;;;0.40;0.40;;;;;;;11.64;100.00;100363.06;7393857;19;20022;-84
2022/06/16 02:33:22;;;;;;;0.77;0.68;;;;;;;11.55;100.00;100377.03;7390771;19;20021;-84
2022/06/16 02:36:02;;;;;;;3.20;1.35;;;;;;;11.45;100.00;100389.47;7389530;19;20034;-84
2022/06/16 02:39:06;;;;;;;0.82;0.70;;;;;;;11.38;100.00;100384.22;7389034;19;20388;-84
2022/06/16 02:41:47;;;;;;;2.38;0.95;;;;;;;11.37;100.00;100379.88;7395830;19;20046;-84
2022/06/16 02:44:28;;;;;;;1.98;1.20;;;;;;;11.41;100.00;100375.69;7388814;19;20524;-84
2022/06/16 02:47:14;;;;;;;0.85;0.82;;;;;;;11.39;100.00;100383.00;7392985;19;20515;-83
2022/06/16 02:50:04;;;;;;;0.95;0.88;;;;;;;11.34;100.00;100395.53;7389454;19;20082;-84
2022/06/16 02:52:45;;;;;;;0.70;0.55;;;;;;;11.30;100.00;100396.94;7391493;19;20014;-84
2022/06/16 02:55:19;;;;;;;2.45;1.17;;;;;;;11.28;100.00;100385.47;7390369;19;20819;-84
2022/06/16 02:57:54;;;;;;;1.23;0.55;;;;;;;11.29;100.00;100373.84;7390610;19;20014;-84
2022/06/16 03:00:38;;;;;;;1.92;0.93;;;;;;;11.30;100.00;100385.78;7398047;19;20014;-84
2022/06/16 03:03:23;;;;;;;0.65;0.43;;;;;;;11.29;100.00;100393.38;7395068;19;20014;-84
2022/06/16 03:05:58;;;;;;;0.40;0.40;;;;;;;11.22;100.00;100390.13;7395175;19;20539;-83
2022/06/16 03:08:27;;;;;;;0.82;0.80;;;;;;;11.17;100.00;100390.75;7394937;19;20014;-84
2022/06/16 03:11:02;;;;;;;1.10;0.50;;;;;;;11.13;100.00;100376.22;7397531;19;20014;-84
2022/06/16 03:13:32;;;;;;;1.17;0.40;;;;;;;11.10;100.00;100380.72;7396703;19;20017;-84
2022/06/16 03:16:00;;;;;;;0.85;0.55;;;;;;;11.08;100.00;100376.84;7397367;19;20042;-84
2022/06/16 03:18:30;;;;;;;2.08;0.75;;;;;;;11.12;100.00;100371.88;7397696;19;20063;-84
2022/06/16 03:20:56;;;;;;;1.42;0.75;;;;;;;11.17;100.00;100374.03;7399699;19;20492;-83
2022/06/16 03:23:23;;;;;;;6.53;0.85;;;;;;;11.22;100.00;100381.75;7396878;19;20007;-84
2022/06/16 03:25:50;;;;;;;0.82;0.82;;;;;;;11.17;100.00;100374.81;7393998;19;20017;-84
2022/06/16 03:28:17;;;;;;;0.93;0.55;;;;;;;11.16;100.00;100383.63;7398054;19;20070;-84
2022/06/16 03:30:44;;;;;;;1.55;1.05;;;;;;;11.15;100.00;100393.25;7398833;19;20010;-84
2022/06/16 03:33:13;;;;;;;1.38;0.60;;;;;;;11.11;100.00;100396.19;7396531;19;20369;-83
2022/06/16 03:35:41;;;;;;;2.75;1.05;;;;;;;11.12;100.00;100394.16;7394591;19;20015;-84
2022/06/16 03:38:12;;;;;;;0.93;0.88;;;;;;;11.11;100.00;100398.22;7394212;19;20017;-84
2022/06/16 03:40:41;;;;;;;1.15;0.60;;;;;;;11.08;100.00;100401.91;7397088;19;20037;-84
2022/06/16 03:43:08;;;;;;;0.32;0.28;;;;;;;11.01;100.00;100400.22;7394221;19;20014;-84
2022/06/16 03:45:36;;;;;;;0.32;0.30;;;;;;;10.94;100.00;100400.53;7393159;19;20034;-84
2022/06/16 03:48:04;;;;;;;0.82;0.60;;;;;;;10.94;100.00;100408.09;7396901;19;20011;-83
2022/06/16 03:50:31;;;;;;;0.95;0.68;;;;;;;10.93;100.00;100409.34;7397139;19;20424;-84
2022/06/16 03:52:57;;;;;;;3.03;0.88;;;;;;;10.95;100.00;100415.25;7396709;19;20489;-84
2022/06/16 03:55:24;;;;;;;1.95;0.98;;;;;;;10.96;100.00;100414.00;7393637;19;20014;-84
2022/06/16 03:57:50;;;;;;;2.65;0.70;;;;;;;10.95;100.00;100415.25;7393689;19;20465;-84
2022/06/16 04:00:19;;;;;;;0.75;0.75;;;;;;;10.93;100.00;100432.44;7394009;19;20575;-84
2022/06/16 04:03:59;;;;;;;0.60;0.50;;;;;;;10.89;100.00;100437.38;7399025;19;20035;-84
2022/06/16 04:05:36;;;;;;;1.40;1.00;;;;;;;10.89;100.00;100442.19;7394277;19;20007;-83
2022/06/16 04:08:07;;;;;;;;;;;;;;;10.92;100.00;100444.03;7394510;19;20373;-84
2022/06/16 04:10:34;;;;;;;1.92;0.57;;;;;;;10.98;100.00;100450.56;7395756;19;19915;-84
2022/06/16 04:13:03;;;;;;;2.40;1.00;;;;;;;10.91;100.00;100445.28;7395637;19;20018;-84
2022/06/16 04:15:32;;;;;;;3.22;0.85;;;;;;;10.92;100.00;100446.81;7393294;19;20007;-84
2022/06/16 04:18:01;;;;;;;1.95;1.13;;;;;;;10.92;100.00;100450.38;7395102;19;20031;-84
2022/06/16 04:20:33;;;;;;;0.63;0.60;;;;;;;10.94;100.00;100455.47;7392338;19;20735;-84
2022/06/16 04:23:10;;;;;;;0.52;0.52;;;;;;;10.98;100.00;100456.13;7397973;19;20461;-84
2022/06/16 04:25:37;;;;;;;1.10;0.52;;;;;;;11.02;100.00;100459.53;7392370;19;20034;-84
2022/06/16 04:28:16;;;;;;;0.88;0.85;;;;;;;11.08;100.00;100444.50;7395306;19;20011;-85
2022/06/16 04:30:48;;;;;;;0.65;0.47;;;;;;;11.15;100.00;100454.56;7395013;19;20074;-84
2022/06/16 04:33:14;;;;;;;3.50;0.93;;;;;;;11.17;100.00;100457.66;7394295;19;20066;-84
2022/06/16 04:35:41;;;;;;;0.25;0.20;;;;;;;11.28;100.00;100466.34;7392707;19;20014;-84
2022/06/16 04:38:09;;;;;;;0.60;0.57;;;;;;;11.31;100.00;100470.97;7392535;19;20014;-84
2022/06/16 04:40:38;;;;;;;1.65;0.95;;;;;;;11.31;100.00;100471.75;7393449;19;20019;-84
2022/06/16 04:43:09;;;;;;;1.67;0.93;;;;;;;11.40;100.00;100476.53;7397472;19;20010;-84
2022/06/16 04:45:37;;;;;;;1.50;0.90;;;;;;;11.49;100.00;100468.19;7392734;19;20018;-84
2022/06/16 04:48:04;;;;;;;4.70;1.13;;;;;;;11.57;100.00;100474.19;7394231;19;20516;-84
2022/06/16 04:50:35;;;;;;;0.55;0.45;;;;;;;11.66;100.00;100479.75;7393796;19;20022;-84
2022/06/16 04:53:04;;;;;;;2.03;0.88;;;;;;;11.72;100.00;100477.91;7398413;19;20361;-84
2022/06/16 04:55:35;;;;;;;1.02;0.50;;;;;;;11.79;100.00;100481.16;7392077;19;20029;-84
2022/06/16 04:58:23;;;;;;;1.67;0.60;;;;;;;11.87;100.00;100474.00;7389504;19;20014;-84
2022/06/16 05:00:56;;;;;;;0.98;0.57;;;;;;;11.97;100.00;100461.59;7386170;19;20026;-84
2022/06/16 05:03:44;;;;;;;2.10;1.10;;;;;;;12.09;100.00;100466.19;7384067;19;20018;-84
2022/06/16 05:06:23;;;;;;;6.53;2.50;;;;;;;12.17;100.00;100453.44;7397858;19;20010;-83
2022/06/16 05:09:09;;;;;;;0.52;0.43;;;;;;;12.26;100.00;100457.44;7392508;19;20031;-84
2022/06/16 05:11:53;;;;;;;0.60;0.60;;;;;;;12.43;100.00;100450.22;7397647;19;20475;-83
2022/06/16 05:14:39;;;;;;;5.03;0.93;;;;;;;12.62;100.00;100452.44;7392944;19;20029;-84
2022/06/16 05:17:28;;;;;;;2.85;0.50;;;;;;;12.79;100.00;100455.59;7391078;19;20041;-84
2022/06/16 05:20:13;;;;;;;1.08;0.85;;;;;;;12.97;100.00;100466.66;7388796;19;20025;-84
2022/06/16 05:22:58;;;;;;;13.48;1.85;;;;;;;13.15;100.00;100465.75;7393785;19;20034;-84
2022/06/16 05:25:42;;;;;;;1.95;0.75;;;;;;;13.26;100.00;100466.75;7389248;19;20021;-84
2022/06/16 05:28:33;;;;;;;1.88;1.05;;;;;;;13.38;100.00;100465.69;7393896;19;20098;-83
2022/06/16 05:31:17;;;;;;;2.45;0.43;;;;;;;13.50;100.00;100469.47;7394265;19;20029;-84
2022/06/16 05:33:55;;;;;;;1.98;1.05;;;;;;;13.68;100.00;100470.09;7396466;19;20010;-84
2022/06/16 05:36:39;;;;;;;0.82;0.82;;;;;;;13.84;100.00;100477.22;7392439;19;20025;-84
2022/06/16 05:39:24;;;;;;;1.95;0.85;;;;;;;14.00;100.00;100471.13;7392701;19;20017;-85
2022/06/16 05:42:13;;;;;;;0.55;0.55;;;;;;;14.17;100.00;100477.00;7394381;19;20026;-84
2022/06/16 05:44:58;;;;;;;1.30;0.55;;;;;;;14.25;100.00;100481.72;7391416;19;20495;-84
2022/06/16 05:47:47;;;;;;;3.88;0.50;;;;;;;14.30;100.00;100485.91;7392355;19;20014;-84
2022/06/16 05:50:16;;;;;;;0.52;0.47;;;;;;;14.36;100.00;100478.34;7392355;19;20011;-83
2022/06/16 05:52:43;;;;;;;1.05;0.38;;;;;;;14.44;100.00;100476.72;7393789;19;20019;-84
2022/06/16 05:55:23;;;;;;;;;;;;;;;14.56;100.00;100478.41;7391037;19;20425;-84
2022/06/16 05:57:50;;;;;;;0.55;0.40;;;;;;;14.64;100.00;100475.97;7390108;19;19914;-84
2022/06/16 06:00:17;;;;;;;1.67;0.80;;;;;;;14.70;100.00;100474.78;7394334;19;20476;-84
2022/06/16 06:02:58;;;;;;;2.15;0.90;;;;;;;14.77;100.00;100477.16;7392405;19;20082;-83
2022/06/16 06:05:28;;;;;;;1.33;0.60;;;;;;;14.88;100.00;100474.50;7390878;19;20022;-83
2022/06/16 06:16:25;;;;;;;3.33;0.98;;;;;;;15.28;100.00;100470.16;7390214;19;20349;-84
2022/06/16 06:18:53;;;;;;;0.57;0.57;;;;;;;15.43;100.00;100473.63;7392306;19;20105;-83
2022/06/16 06:24:10;;;;;;;1.48;0.68;;;;;;;15.76;100.00;100454.34;7392887;19;20026;-84
2022/06/16 06:26:37;;;;;;;1.88;0.77;;;;;;;15.86;100.00;100462.09;7391235;19;20044;-84
2022/06/16 06:29:05;;;;;;;0.95;0.50;;;;;;;15.89;100.00;100465.97;7395777;19;20385;-84
2022/06/16 06:31:31;;;;;;;2.53;0.88;;;;;;;15.93;100.00;100474.94;7394433;19;20029;-84
2022/06/16 06:33:57;;;;;;;3.13;0.73;;;;;;;15.92;100.00;100481.81;7400779;19;20071;-84
2022/06/16 06:36:23;;;;;;;1.08;0.60;;;;;;;15.88;100.00;100475.66;7395528;19;20018;-84
2022/06/16 06:38:49;;;;;;;1.20;0.75;;;;;;;15.99;100.00;100484.16;7397658;19;20461;-84
2022/06/16 06:41:17;;;;;;;2.33;0.70;;;;;;;16.04;100.00;100482.69;7399169;19;20014;-84
2022/06/16 06:43:43;;;;;;;1.40;0.75;;;;;;;16.08;100.00;100492.44;7401103;19;20401;-85
2022/06/16 06:46:11;;;;;;;2.83;0.38;;;;;;;16.29;100.00;100488.25;7400458;19;20342;-84
2022/06/16 06:48:37;;;;;;;3.90;0.98;;;;;;;16.46;100.00;100485.56;7399406;19;20006;-84
2022/06/16 06:51:03;;;;;;;3.10;0.77;;;;;;;16.46;100.00;100486.31;7399225;19;20365;-84
2022/06/16 06:53:30;;;;;;;1.67;0.52;;;;;;;16.51;100.00;100477.19;7402318;19;20020;-84
2022/06/16 06:55:56;;;;;;;0.52;0.47;;;;;;;16.53;100.00;100476.69;7396276;19;20019;-85
2022/06/16 06:58:23;;;;;;;1.05;0.65;;;;;;;16.54;100.00;100479.03;7398728;19;21140;-84
2022/06/16 07:00:51;;;;;;;0.98;0.88;;;;;;;16.51;100.00;100480.00;7400059;19;20018;-84
2022/06/16 07:03:17;;;;;;;0.77;0.40;;;;;;;16.49;100.00;100473.31;7398190;19;20081;-84
2022/06/16 07:05:44;;;;;;;0.30;0.30;;;;;;;16.45;100.00;100481.22;7395437;19;20042;-84
2022/06/16 07:08:10;;;;;;;0.47;0.30;;;;;;;16.40;100.00;100465.84;7397760;19;20014;-84
2022/06/16 07:10:36;;;;;;;0.22;0.20;;;;;;;16.34;100.00;100455.84;7398165;19;20010;-85
2022/06/16 07:13:03;;;;;;;0.13;0.13;;;;;;;16.32;100.00;100447.91;7398785;19;20014;-84
2022/06/16 07:15:29;;;;;;;0.50;0.45;;;;;;;16.34;100.00;100444.59;7396587;19;20042;-83
2022/06/16 07:17:56;;;;;;;2.42;1.10;;;;;;;16.36;100.00;100434.38;7395426;19;20089;-84
2022/06/16 07:20:22;;;;;;;2.20;0.70;;;;;;;16.66;100.00;100427.19;7394929;19;20493;-83
2022/06/16 07:22:48;;;;;;;0.63;0.22;;;;;;;16.85;100.00;100426.75;7397316;19;20030;-84
2022/06/16 07:25:15;;;;;;;1.02;0.45;;;;;;;17.02;100.00;100433.22;7394742;19;20018;-84
2022/06/16 07:27:42;;;;;;;0.52;0.20;;;;;;;17.01;100.00;100435.25;7399282;19;20018;-84
2022/06/16 07:30:14;;;;;;;1.08;0.30;;;;;;;17.12;100.00;100435.31;7397440;19;20003;-84
2022/06/16 07:32:41;;;;;;;1.08;0.57;;;;;;;17.36;100.00;100443.31;7397026;19;20027;-84
2022/06/16 07:35:08;;;;;;;1.17;0.52;;;;;;;17.26;100.00;100467.34;7396911;19;20010;-84
2022/06/16 07:37:34;;;;;;;0.13;0.13;;;;;;;17.16;100.00;100469.59;7395122;19;20115;-84
2022/06/16 07:40:00;;;;;;;1.55;0.40;;;;;;;17.20;100.00;100470.13;7395003;19;20472;-85
2022/06/16 07:42:27;;;;;;;0.88;0.25;;;;;;;17.25;100.00;100468.59;7395505;19;20082;-84
2022/06/16 07:44:53;;;;;;;1.38;0.50;;;;;;;17.31;100.00;100472.22;7393242;19;20030;-84
2022/06/16 07:47:20;;;;;;;1.55;0.30;;;;;;;17.43;100.00;100468.16;7397884;19;20026;-84
2022/06/16 07:49:49;;;;;;;0.55;0.55;;;;;;;17.47;100.00;100471.50;7396848;19;20027;-85
2022/06/16 07:52:16;;;;;;;3.15;0.90;;;;;;;17.89;100.00;100468.50;7397789;19;20011;-84
2022/06/16 07:54:43;;;;;;;1.30;0.20;;;;;;;18.12;100.00;100469.28;7398140;19;20486;-84
2022/06/16 07:57:10;;;;;;;0.38;0.30;;;;;;;18.10;100.00;100466.22;7393810;19;20022;-85
2022/06/16 07:59:36;;;;;;;0.85;0.55;;;;;;;18.09;100.00;100459.81;7398562;19;20011;-84
2022/06/16 08:02:03;;;;;;;1.50;0.43;;;;;;;18.16;100.00;100459.31;7394853;19;20038;-85
2022/06/16 08:04:30;;;;;;;0.35;0.20;;;;;;;18.24;100.00;100470.03;7397445;19;20377;-84
2022/06/16 08:07:00;;;;;;;1.42;0.50;;;;;;;18.35;100.00;100464.41;7396562;19;20469;-84
2022/06/16 08:09:28;;;;;;;1.35;0.73;;;;;;;18.45;100.00;100462.91;7389604;19;20086;-85
2022/06/16 08:12:04;;;;;;;2.35;0.82;;;;;;;18.58;100.00;100455.41;7388190;19;20018;-85
2022/06/16 08:14:31;;;;;;;0.47;0.47;;;;;;;18.83;100.00;100447.91;7396621;19;20057;-85
2022/06/16 08:16:58;;;;;;;3.45;0.30;;;;;;;19.08;100.00;100449.59;7394671;19;20078;-84
2022/06/16 08:19:24;;;;;;;1.23;0.32;;;;;;;19.35;100.00;100426.13;7399443;19;20465;-85
2022/06/16 08:21:50;;;;;;;2.90;0.47;;;;;;;19.63;100.00;100423.13;7396212;19;20399;-85
2022/06/16 08:24:17;;;;;;;0.75;0.30;;;;;;;19.79;100.00;100429.97;7399699;19;20018;-85
2022/06/16 08:26:44;;;;;;;1.08;0.15;;;;;;;19.90;100.00;100424.22;7396479;19;20043;-86
2022/06/16 08:29:13;;;;;;;0.30;0.30;;;;;;;20.04;100.00;100429.47;7396297;19;20015;-85
2022/06/16 08:31:40;;;;;;;1.33;0.40;;;;;;;20.26;100.00;100422.88;7397585;19;20010;-85
2022/06/16 08:34:07;;;;;;;1.20;0.13;;;;;;;20.49;100.00;100429.84;7395202;19;20022;-85
2022/06/16 08:36:33;;;;;;;0.10;0.10;;;;;;;20.77;100.00;100421.81;7394105;19;20030;-85
2022/06/16 08:38:59;;;;;;;0.60;0.28;;;;;;;21.00;100.00;100425.16;7395599;19;20022;-84
2022/06/16 08:41:35;;;;;;;0.50;0.10;;;;;;;21.12;100.00;100418.81;7397031;19;20010;-84
2022/06/16 08:44:10;;;;;;;0.10;0.10;;;;;;;21.20;100.00;100399.16;7397429;19;20018;-84
2022/06/16 08:46:43;;;;;;;0.30;0.20;;;;;;;21.45;100.00;100411.94;7397008;19;20367;-84
2022/06/16 08:49:27;;;;;;;0.10;0.10;;;;;;;21.79;100.00;100412.94;7396797;19;20023;-85
2022/06/16 08:52:30;;;;;;;3.80;0.60;;;;;;;22.02;100.00;100429.63;7395555;19;20041;-84
2022/06/16 08:55:15;;;;;;;0.17;0.15;;;;;;;22.30;100.00;100433.53;7389257;19;20027;-85
2022/06/16 08:57:58;;;;;;;0.95;0.30;;;;;;;22.53;100.00;100440.31;7393729;19;20054;-84
2022/06/16 09:00:38;;;;;;;0.98;0.08;;;;;;;22.76;100.00;100432.13;7393807;19;20018;-84
2022/06/16 09:03:14;;;;;;;1.33;0.20;;;;;;;22.80;100.00;100435.44;7394213;19;20066;-84
2022/06/16 09:06:07;;;;;;;0.77;0.17;;;;;;;22.84;100.00;100435.88;7392540;19;20102;-84
2022/06/16 09:08:41;;;;;;;1.50;0.40;;;;;;;22.80;100.00;100434.66;7397129;19;20022;-83
2022/06/16 09:11:32;;;;;;;0.80;0.20;;;;;;;22.84;100.00;100430.19;7395569;19;20500;-84
2022/06/16 09:17:42;;;;;;;5.35;0.10;;;;;;;23.24;100.00;100445.88;7393252;19;20039;-83
2022/06/16 09:20:19;;;;;;;1.02;0.10;;;;;;;23.56;100.00;100448.56;7394010;19;20081;-84
2022/06/16 09:23:08;;;;;;;2.72;0.13;;;;;;;23.79;100.00;100446.72;7393493;19;20070;-84
2022/06/16 09:25:34;;;;;;;1.75;0.20;;;;;;;23.88;100.00;100451.94;7391623;19;20369;-85
2022/06/16 09:28:51;;;;;;;0.90;0.03;;;;;;;23.97;100.00;100471.34;7393807;19;20018;-86
2022/06/16 09:31:38;;;;;;;0.20;0.00;;;;;;;23.87;100.00;100456.09;7391086;19;20026;-85
2022/06/16 09:34:12;;;;;;;1.08;0.10;;;;;;;23.80;100.00;100459.59;7396243;19;20024;-85
2022/06/16 09:36:43;;;;;;;0.73;0.28;;;;;;;23.74;100.00;100450.44;7392508;19;20047;-85
2022/06/16 09:39:37;;;;;;;0.63;0.10;;;;;;;23.76;100.00;100461.25;7394325;19;20037;-85
2022/06/16 09:42:37;;;;;;;0.10;0.00;;;;;;;23.86;100.00;100460.25;7393852;19;20365;-85
2022/06/16 09:45:22;;;;;;;0.45;0.15;;;;;;;24.10;100.00;100462.78;7393378;19;20029;-84
2022/06/16 09:47:51;;;;;;;3.65;0.52;;;;;;;24.03;100.00;100457.78;7394635;19;20021;-85
2022/06/16 09:50:26;;;;;;;0.85;0.10;;;;;;;24.13;100.00;100455.22;7391729;19;20456;-85
2022/06/16 09:53:02;;;;;;;0.75;0.13;;;;;;;24.27;100.00;100435.97;7393147;19;20011;-85
2022/06/16 09:56:07;;;;;;;1.77;0.40;;;;;;;24.31;100.00;100431.47;7395948;19;20007;-84
2022/06/16 09:58:48;;;;;;;2.15;0.17;;;;;;;24.43;100.00;100432.69;7388209;19;20027;-85
2022/06/16 10:01:18;;;;;;;0.95;0.22;;;;;;;24.56;97.55;100429.00;7390144;19;20372;-85
2022/06/16 10:03:47;;;;;;;0.13;0.00;;;;;;;24.69;100.00;100432.50;7391865;19;20018;-85
2022/06/16 10:07:01;;;;;;;0.28;0.10;;;;;;;24.56;96.36;100424.03;7392704;19;20396;-85
2022/06/16 10:09:48;;;;;;;0.30;0.25;;;;;;;24.49;92.21;100424.00;7390147;19;20036;-85
2022/06/16 10:12:30;;;;;;;2.30;0.10;;;;;;;24.51;95.05;100432.75;7391469;19;20052;-84
2022/06/16 10:15:04;;;;;;;0.17;0.10;;;;;;;24.54;91.86;100420.22;7390352;19;20011;-85
2022/06/16 10:17:33;;;;;;;2.22;0.10;;;;;;;24.66;92.03;100427.16;7392146;19;20019;-85
2022/06/16 10:19:59;;;;;;;0.20;0.00;;;;;;;24.88;95.33;100420.88;7390057;19;20010;-84
2022/06/16 10:22:28;;;;;;;0.77;0.47;;;;;;;25.23;97.27;100427.88;7389988;19;20014;-84
2022/06/16 10:25:25;;;;;;;0.10;0.00;;;;;;;25.22;89.94;100449.91;7392237;19;20011;-85
2022/06/16 10:27:59;;;;;;;0.20;0.20;;;;;;;25.09;92.39;100446.41;7391816;19;20017;-84
2022/06/16 10:30:36;;;;;;;2.38;0.10;;;;;;;25.05;90.65;100455.34;7393303;19;20050;-85
2022/06/16 10:33:05;;;;;;;0.20;0.20;;;;;;;25.04;87.30;100462.34;7395736;19;20014;-85
2022/06/16 10:35:32;;;;;;;0.52;0.20;;;;;;;25.26;85.84;100464.56;7393352;19;20030;-84
2022/06/16 10:37:58;;;;;;;0.65;0.30;;;;;;;25.29;87.88;100466.28;7389150;19;20015;-85
2022/06/16 10:40:30;;;;;;;2.30;0.15;;;;;;;25.10;89.02;100465.81;7390259;19;20011;-84
2022/06/16 10:43:07;;;;;;;0.28;0.10;;;;;;;25.21;88.61;100456.94;7392804;19;20007;-85
2022/06/16 10:45:35;;;;;;;0.10;0.00;;;;;;;25.36;84.37;100439.88;7392482;19;20018;-84
2022/06/16 10:48:03;;;;;;;0.57;0.08;;;;;;;25.43;85.11;100447.72;7394366;19;20074;-84
2022/06/16 10:50:31;;;;;;;0.30;0.00;;;;;;;25.73;85.36;100452.03;7391892;19;20410;-85
2022/06/16 10:53:04;;;;;;;3.83;0.10;;;;;;;25.84;82.34;100448.78;7390583;19;20035;-83
2022/06/16 10:55:43;;;;;;;0.88;0.10;;;;;;;25.89;80.00;100453.56;7390714;19;20343;-84
2022/06/16 10:58:17;;;;;;;0.25;0.15;;;;;;;26.30;81.66;100467.53;7388739;19;20014;-84
2022/06/16 11:01:16;;;;;;;0.10;0.00;;;;;;;26.60;84.71;100467.50;7389186;19;20345;-84
2022/06/16 11:03:46;;;;;;;0.98;0.05;;;;;;;26.84;79.12;100471.88;7388928;19;20017;-84
2022/06/16 11:06:22;;;;;;;3.72;0.20;;;;;;;26.95;75.80;100468.63;7392621;19;20030;-84
2022/06/16 11:08:52;;;;;;;1.42;0.30;;;;;;;26.95;73.18;100477.97;7395553;19;20050;-84
2022/06/16 11:11:33;;;;;;;0.20;0.10;;;;;;;27.16;81.08;100485.53;7389337;19;20025;-84
2022/06/16 11:14:03;;;;;;;1.02;0.38;;;;;;;27.44;79.81;100491.00;7390156;19;20039;-84
2022/06/16 11:16:37;;;;;;;0.70;0.17;;;;;;;27.67;78.15;100494.50;7393341;19;20043;-84
2022/06/16 11:19:10;;;;;;;4.30;0.55;;;;;;;27.46;73.81;100491.94;7396831;19;20022;-84
2022/06/16 11:21:37;;;;;;;0.22;0.15;;;;;;;27.27;70.20;100491.59;7399578;19;20015;-84
2022/06/16 11:24:07;;;;;;;2.15;0.32;;;;;;;27.10;69.15;100484.97;7395862;19;20011;-83
2022/06/16 11:26:37;;;;;;;0.45;0.10;;;;;;;27.02;68.90;100482.91;7397919;19;20044;-84
2022/06/16 11:29:30;;;;;;;0.00;0.00;;;;;;;27.13;71.07;100481.75;7398334;19;20049;-84
2022/06/16 11:32:19;;;;;;;0.10;0.10;;;;;;;27.15;71.69;100484.00;7399521;19;20480;-84
2022/06/16 11:34:47;;;;;;;0.65;0.10;;;;;;;27.12;69.06;100496.59;7394557;19;20349;-85
2022/06/16 11:37:31;;;;;;;1.17;0.30;;;;;;;27.31;70.36;100491.97;7398485;19;20031;-84
2022/06/16 11:40:24;;;;;;;2.60;0.30;;;;;;;27.64;71.67;100501.38;7400250;19;20014;-83
2022/06/16 11:43:04;;;;;;;2.58;0.10;;;;;;;27.69;69.11;100500.41;7399656;19;20011;-84
2022/06/16 11:45:40;;;;;;;0.25;0.00;;;;;;;27.61;66.93;100496.84;7399665;19;20011;-84
2022/06/16 11:48:06;;;;;;;0.95;0.10;;;;;;;27.46;69.56;100486.19;7401229;19;20003;-83
2022/06/16 11:50:50;;;;;;;0.25;0.00;;;;;;;27.41;67.00;100492.16;7414640;19;20014;-84
2022/06/16 11:53:40;;;;;;;0.10;0.10;;;;;;;27.14;72.61;100488.22;7396642;19;20070;-84
2022/06/16 11:56:25;;;;;;;0.23;0.00;;;;;;;27.02;71.67;100482.16;7395021;19;20007;-84
2022/06/16 11:59:20;;;;;;;0.20;0.00;;;;;;;26.92;73.54;100496.25;7394615;19;20279;-84
2022/06/16 12:02:08;;;;;;;0.73;0.45;;;;;;;26.88;73.86;100506.56;7395780;19;20129;-84
2022/06/16 12:04:43;;;;;;;1.73;0.03;;;;;;;26.78;72.33;100500.69;7395251;19;20022;-84
2022/06/16 12:07:16;;;;;;;2.75;0.38;;;;;;;26.69;72.34;100501.22;7398979;19;20017;-84
2022/06/16 12:09:42;;;;;;;0.20;0.10;;;;;;;26.64;74.63;100510.75;7394982;19;20018;-84